Terminal Aerodrome Forecast
Issued by NWS

Home | Current Version | Previous Version | Text Only | Print | Product List | Glossary Off
Versions: 1 2 3 4 5 6 7 8 9 10 11 12

000
FTUS45 KGGW 301700
TAFOLF
TAF
KOLF 301722Z 3018/3118 07007KT P6SM SCT010 BKN020
     FM302100 08009KT P6SM FEW020
     FM310300 07013KT P6SM SKC
     FM310900 08016KT P6SM FEW010
     FM311500 08020G28KT P6SM SCT010 BKN200=

USA.gov is the U.S. government's official web portal to all federal, state and local government web resources and services.